createdAt,value
2023-05-19T00:02:06.071Z,8.94
2023-05-19T00:05:10.461Z,8.84
2023-05-19T00:08:19.937Z,8.77
2023-05-19T00:11:23.014Z,8.72
2023-05-19T00:14:25.831Z,8.69
2023-05-19T00:17:28.980Z,8.65
2023-05-19T00:20:31.748Z,8.67
2023-05-19T00:23:34.703Z,8.65
2023-05-19T00:26:37.280Z,8.62
2023-05-19T00:29:40.433Z,8.61
2023-05-19T00:32:43.985Z,8.57
2023-05-19T00:35:46.662Z,8.53
2023-05-19T00:38:51.175Z,8.52
2023-05-19T00:41:53.906Z,8.50
2023-05-19T00:44:56.345Z,8.49
2023-05-19T00:47:59.108Z,8.45
2023-05-19T00:51:04.747Z,8.45
2023-05-19T00:54:08.646Z,8.49
2023-05-19T00:57:12.579Z,8.44
2023-05-19T01:00:18.389Z,8.40
2023-05-19T01:03:21.487Z,8.42
2023-05-19T01:06:25.688Z,8.34
2023-05-19T01:09:28.482Z,8.34
2023-05-19T01:12:31.300Z,8.26
2023-05-19T01:15:45.982Z,8.25
2023-05-19T01:19:03.960Z,8.18
2023-05-19T01:22:33.693Z,8.16
2023-05-19T01:25:51.749Z,8.13
2023-05-19T01:29:17.322Z,8.14
2023-05-19T01:32:21.276Z,8.11
2023-05-19T01:35:26.277Z,8.11
2023-05-19T01:38:30.337Z,8.06
2023-05-19T01:41:34.659Z,8.07
2023-05-19T01:44:38.062Z,8.05
2023-05-19T01:47:43.887Z,8.05
2023-05-19T01:50:47.166Z,8.06
2023-05-19T01:53:51.399Z,8.12
2023-05-19T01:56:58.052Z,8.15
2023-05-19T02:00:22.368Z,8.13
2023-05-19T02:03:43.894Z,8.12
2023-05-19T02:07:09.821Z,8.09
2023-05-19T02:10:23.015Z,8.09
2023-05-19T02:13:31.686Z,8.11
2023-05-19T02:16:36.796Z,8.15
2023-05-19T02:19:42.231Z,8.19
2023-05-19T02:22:45.959Z,8.25
2023-05-19T02:25:49.249Z,8.26
2023-05-19T02:28:51.940Z,8.31
2023-05-19T02:31:54.615Z,8.36
2023-05-19T02:34:57.355Z,8.40
2023-05-19T02:37:59.898Z,8.45
2023-05-19T02:41:03.451Z,8.48
2023-05-19T02:44:06.578Z,8.49
2023-05-19T02:47:09.385Z,8.50
2023-05-19T02:50:11.864Z,8.52
2023-05-19T02:53:14.622Z,8.54
2023-05-19T02:56:17.090Z,8.55
2023-05-19T02:59:20.096Z,8.59
2023-05-19T03:02:22.479Z,8.62
2023-05-19T03:05:25.177Z,8.63
2023-05-19T03:08:28.249Z,8.67
2023-05-19T03:11:31.067Z,8.70
2023-05-19T03:14:34.818Z,8.71
2023-05-19T03:17:37.829Z,8.77
2023-05-19T03:20:42.441Z,8.81
2023-05-19T03:23:45.060Z,8.87
2023-05-19T03:26:47.956Z,8.90
2023-05-19T03:29:53.852Z,8.95
2023-05-19T03:32:56.952Z,8.99
2023-05-19T03:35:59.909Z,9.02
2023-05-19T03:39:07.030Z,9.08
2023-05-19T03:42:10.272Z,9.10
2023-05-19T03:45:12.959Z,9.17
2023-05-19T03:48:17.082Z,9.22
2023-05-19T03:51:21.904Z,9.31
2023-05-19T03:54:26.274Z,9.40
2023-05-19T03:57:29.492Z,9.46
2023-05-19T04:00:32.363Z,9.56
2023-05-19T04:03:37.250Z,9.63
2023-05-19T04:06:41.914Z,9.72
2023-05-19T04:09:45.222Z,9.81
2023-05-19T04:12:48.176Z,9.87
2023-05-19T04:15:54.386Z,9.97
2023-05-19T04:18:57.066Z,10.03
2023-05-19T04:22:00.303Z,10.10
2023-05-19T04:25:04.600Z,10.14
2023-05-19T04:28:07.761Z,10.19
2023-05-19T04:31:12.805Z,10.27
2023-05-19T04:34:15.985Z,10.33
2023-05-19T04:37:20.073Z,10.40
2023-05-19T04:40:25.925Z,10.39
2023-05-19T04:43:31.681Z,10.48
2023-05-19T04:46:36.181Z,10.57
2023-05-19T04:49:39.185Z,10.60
2023-05-19T04:52:42.678Z,10.72
2023-05-19T04:55:47.632Z,10.82
2023-05-19T04:58:51.088Z,10.94
2023-05-19T05:01:53.686Z,11.08
2023-05-19T05:04:56.894Z,11.19
2023-05-19T05:08:03.419Z,11.48
2023-05-19T05:11:08.012Z,11.60
2023-05-19T05:14:11.372Z,11.85
2023-05-19T05:17:17.400Z,12.08
2023-05-19T05:20:20.538Z,12.28
2023-05-19T05:23:23.945Z,12.40
2023-05-19T05:26:30.986Z,12.58
2023-05-19T05:29:35.327Z,12.79
2023-05-19T05:32:38.847Z,13.00
2023-05-19T05:35:43.782Z,12.95
2023-05-19T05:38:54.258Z,13.26
2023-05-19T05:41:58.090Z,13.34
2023-05-19T05:45:00.768Z,13.51
2023-05-19T05:48:07.473Z,13.55
2023-05-19T05:51:10.433Z,13.67
2023-05-19T05:54:14.498Z,13.53
2023-05-19T05:57:17.406Z,13.19
2023-05-19T06:00:22.379Z,13.35
2023-05-19T06:03:26.075Z,13.52
2023-05-19T06:06:29.073Z,14.44
2023-05-19T06:09:32.985Z,15.48
2023-05-19T06:12:42.138Z,16.39
2023-05-19T06:15:45.122Z,17.15
2023-05-19T06:18:49.426Z,16.94
2023-05-19T06:21:52.569Z,16.98
2023-05-19T06:24:55.252Z,17.46
2023-05-19T06:27:58.138Z,17.49
2023-05-19T06:31:03.950Z,17.49
2023-05-19T06:34:10.478Z,17.51
2023-05-19T06:37:19.666Z,16.89
2023-05-19T06:40:23.364Z,17.10
2023-05-19T06:43:28.920Z,17.06
2023-05-19T06:46:32.030Z,17.18
2023-05-19T06:49:34.551Z,17.42
2023-05-19T06:52:37.764Z,17.30
2023-05-19T06:55:50.694Z,17.32
2023-05-19T06:59:01.902Z,17.33
2023-05-19T07:02:05.137Z,17.78
2023-05-19T07:05:09.363Z,18.09
2023-05-19T07:08:12.092Z,17.85
2023-05-19T07:11:15.425Z,17.89
2023-05-19T07:14:27.304Z,18.01
2023-05-19T07:17:30.441Z,18.19
2023-05-19T07:20:34.543Z,18.36
2023-05-19T07:23:37.490Z,18.39
2023-05-19T07:26:40.653Z,18.78
2023-05-19T07:29:52.051Z,19.23
2023-05-19T07:32:56.315Z,19.79
2023-05-19T07:35:59.240Z,21.27
2023-05-19T07:39:01.905Z,21.40
2023-05-19T07:42:05.081Z,21.42
2023-05-19T07:45:08.062Z,22.83
2023-05-19T07:48:11.099Z,22.89
2023-05-19T07:51:13.996Z,22.06
2023-05-19T07:54:17.090Z,21.40
2023-05-19T07:57:23.000Z,20.83
2023-05-19T08:00:26.357Z,20.68
2023-05-19T08:03:30.949Z,20.44
2023-05-19T08:06:33.708Z,20.88
2023-05-19T08:09:36.626Z,21.14
2023-05-19T08:12:39.093Z,21.40
2023-05-19T08:15:42.851Z,21.14
2023-05-19T08:18:45.403Z,21.70
2023-05-19T08:21:48.433Z,21.77
2023-05-19T08:24:51.891Z,22.21
2023-05-19T08:27:54.669Z,22.18
2023-05-19T08:30:57.195Z,21.54
2023-05-19T08:33:59.919Z,22.10
2023-05-19T08:37:03.235Z,21.87
2023-05-19T08:40:07.735Z,22.52
2023-05-19T08:43:11.343Z,22.76
2023-05-19T08:46:16.422Z,23.80
2023-05-19T08:49:25.578Z,24.09
2023-05-19T08:52:28.448Z,23.47
2023-05-19T08:55:57.678Z,24.68
2023-05-19T08:59:04.705Z,24.46
2023-05-19T09:02:11.256Z,24.30
2023-05-19T09:05:16.020Z,23.13
2023-05-19T09:08:18.681Z,23.89
2023-05-19T09:11:22.784Z,24.36
2023-05-19T09:14:25.468Z,24.50
2023-05-19T09:17:28.197Z,24.98
2023-05-19T09:20:31.059Z,25.22
2023-05-19T09:23:34.220Z,26.08
2023-05-19T09:26:41.494Z,27.24
2023-05-19T09:29:44.331Z,27.00
2023-05-19T09:32:48.132Z,27.05
2023-05-19T09:35:54.311Z,27.80
2023-05-19T09:38:57.115Z,29.68
2023-05-19T09:42:04.895Z,31.57
2023-05-19T09:45:09.351Z,31.74
2023-05-19T09:48:12.779Z,33.09
2023-05-19T09:51:15.287Z,33.92
2023-05-19T09:54:20.531Z,33.64
2023-05-19T09:57:29.832Z,31.48
2023-05-19T10:00:32.939Z,32.32
2023-05-19T10:03:36.938Z,32.58
2023-05-19T10:06:40.882Z,33.03
2023-05-19T10:09:44.936Z,33.98
2023-05-19T10:12:48.969Z,33.82
2023-05-19T10:19:01.234Z,33.70
2023-05-19T10:22:04.392Z,34.00
2023-05-19T10:25:08.605Z,33.52
2023-05-19T10:28:15.182Z,34.35
2023-05-19T10:31:21.602Z,35.14
2023-05-19T10:34:24.258Z,36.03
2023-05-19T10:37:41.876Z,34.90
2023-05-19T10:41:07.632Z,34.68
2023-05-19T10:44:23.519Z,34.64
2023-05-19T10:47:26.840Z,36.20
2023-05-19T10:50:37.965Z,35.54
2023-05-19T10:53:46.425Z,34.42
2023-05-19T10:56:49.086Z,35.29
2023-05-19T10:59:51.802Z,33.41
2023-05-19T11:02:57.621Z,34.31
2023-05-19T11:06:28.546Z,35.55
2023-05-19T11:09:39.864Z,34.50
2023-05-19T11:12:46.026Z,36.65
2023-05-19T11:15:52.003Z,36.40
2023-05-19T11:18:56.466Z,36.93
2023-05-19T11:22:12.561Z,35.73
2023-05-19T11:25:38.316Z,36.43
2023-05-19T11:28:44.474Z,36.83
2023-05-19T11:31:48.798Z,35.57
2023-05-19T11:34:51.586Z,34.94
2023-05-19T11:37:57.669Z,35.96
2023-05-19T11:41:00.824Z,36.33
2023-05-19T11:44:03.717Z,36.91
2023-05-19T11:47:06.776Z,35.66
2023-05-19T11:50:11.712Z,36.66
2023-05-19T11:53:15.461Z,35.65
2023-05-19T11:56:18.348Z,34.49
2023-05-19T11:59:30.449Z,34.98
2023-05-19T12:02:36.427Z,36.06
2023-05-19T12:05:48.396Z,36.13
2023-05-19T12:08:52.253Z,34.69
2023-05-19T12:11:55.570Z,34.25
2023-05-19T12:14:58.185Z,34.38
2023-05-19T12:18:02.577Z,35.91
2023-05-19T12:21:06.023Z,38.06
2023-05-19T12:24:09.273Z,37.33
2023-05-19T12:27:20.448Z,37.31
2023-05-19T12:30:30.088Z,36.55
2023-05-19T12:33:35.477Z,34.85
2023-05-19T12:36:38.830Z,35.63
2023-05-19T12:39:42.973Z,34.29
2023-05-19T12:42:46.608Z,35.96
2023-05-19T12:45:49.676Z,36.84
2023-05-19T12:48:52.560Z,35.65
2023-05-19T12:51:55.030Z,35.65
2023-05-19T12:55:07.958Z,36.08
2023-05-19T12:58:12.010Z,36.48
2023-05-19T13:01:19.853Z,35.25
2023-05-19T13:04:22.460Z,34.97
2023-05-19T13:07:28.149Z,36.60
2023-05-19T13:10:32.112Z,36.43
2023-05-19T13:13:35.044Z,36.94
2023-05-19T13:16:37.543Z,36.65
2023-05-19T13:19:40.673Z,35.59
2023-05-19T13:22:43.510Z,34.90
2023-05-19T13:25:46.809Z,36.13
2023-05-19T13:28:52.276Z,35.88
2023-05-19T13:31:55.568Z,36.11
2023-05-19T13:34:58.709Z,35.34
2023-05-19T13:38:11.204Z,32.83
2023-05-19T13:41:15.935Z,31.59
2023-05-19T13:44:19.739Z,32.26
2023-05-19T13:47:23.865Z,31.08
2023-05-19T13:50:26.773Z,30.39
2023-05-19T13:53:31.212Z,28.78
2023-05-19T13:56:34.019Z,28.16
2023-05-19T13:59:43.117Z,27.83
2023-05-19T14:02:58.372Z,26.98
2023-05-19T14:06:01.235Z,27.00
2023-05-19T14:09:04.170Z,26.66
2023-05-19T14:12:07.330Z,26.08
2023-05-19T14:15:11.456Z,24.37
2023-05-19T14:18:14.609Z,22.96
2023-05-19T14:21:17.035Z,22.32
2023-05-19T14:24:20.221Z,22.06
2023-05-19T14:27:23.052Z,21.51
2023-05-19T14:30:25.879Z,21.35
2023-05-19T14:33:29.725Z,21.32
2023-05-19T14:36:35.598Z,21.38
2023-05-19T14:39:45.630Z,21.51
2023-05-19T14:42:50.658Z,21.53
2023-05-19T14:45:53.223Z,21.45
2023-05-19T14:48:56.094Z,21.34
2023-05-19T14:51:58.719Z,21.29
2023-05-19T14:55:01.493Z,21.37
2023-05-19T14:58:07.894Z,21.27
2023-05-19T15:01:19.054Z,20.90
2023-05-19T15:04:21.776Z,20.26
2023-05-19T15:07:24.745Z,20.42
2023-05-19T15:10:27.113Z,20.54
2023-05-19T15:13:32.697Z,20.58
2023-05-19T15:16:38.026Z,20.60
2023-05-19T15:19:42.819Z,20.61
2023-05-19T15:22:45.342Z,20.87
2023-05-19T15:25:48.129Z,20.97
2023-05-19T15:31:56.191Z,21.41
2023-05-19T15:34:58.661Z,21.57
2023-05-19T15:38:06.163Z,21.66
2023-05-19T15:41:09.149Z,21.79
2023-05-19T15:44:11.884Z,21.73
2023-05-19T15:47:14.360Z,21.80
2023-05-19T15:50:17.149Z,21.82
2023-05-19T15:53:20.341Z,21.76
2023-05-19T15:56:23.008Z,21.70
2023-05-19T15:59:25.510Z,21.70
2023-05-19T16:02:32.306Z,21.65
2023-05-19T16:05:35.181Z,21.50
2023-05-19T16:08:38.091Z,21.38
2023-05-19T16:11:40.876Z,21.27
2023-05-19T16:14:43.257Z,20.98
2023-05-19T16:17:48.487Z,20.97
2023-05-19T16:20:51.445Z,20.97
2023-05-19T16:23:54.269Z,20.95
2023-05-19T16:26:56.700Z,20.98
2023-05-19T16:30:03.376Z,20.88
2023-05-19T16:33:09.465Z,20.89
2023-05-19T16:36:12.552Z,20.84
2023-05-19T16:39:15.435Z,20.70
2023-05-19T16:42:18.188Z,20.63
2023-05-19T16:45:20.703Z,20.51
2023-05-19T16:48:23.334Z,20.41
2023-05-19T16:51:25.871Z,20.31
2023-05-19T16:54:28.937Z,20.24
2023-05-19T16:57:31.372Z,20.13
2023-05-19T17:00:34.597Z,20.04
2023-05-19T17:03:37.442Z,19.90
2023-05-19T17:06:40.478Z,19.79
2023-05-19T17:09:46.376Z,19.66
2023-05-19T17:12:49.144Z,19.54
2023-05-19T17:15:52.765Z,19.42
2023-05-19T17:18:56.104Z,19.30
2023-05-19T17:21:58.554Z,19.17
2023-05-19T17:25:01.442Z,19.03
2023-05-19T17:28:03.969Z,18.90
2023-05-19T17:31:13.835Z,18.78
2023-05-19T17:34:16.306Z,18.64
2023-05-19T17:37:23.357Z,18.51
2023-05-19T17:40:25.998Z,18.38
2023-05-19T17:43:29.074Z,18.28
2023-05-19T17:46:34.733Z,18.18
2023-05-19T17:49:37.595Z,18.07
2023-05-19T17:52:45.018Z,17.95
2023-05-19T17:56:00.956Z,17.83
2023-05-19T17:59:03.597Z,17.69
2023-05-19T18:02:07.506Z,17.55
2023-05-19T18:05:11.003Z,17.46
2023-05-19T18:08:13.795Z,17.37
2023-05-19T18:11:20.074Z,17.31
2023-05-19T18:14:25.825Z,17.25
2023-05-19T18:17:29.557Z,17.21
2023-05-19T18:20:34.014Z,17.21
2023-05-19T18:23:37.040Z,17.16
2023-05-19T18:26:42.065Z,17.09
2023-05-19T18:29:47.506Z,17.08
2023-05-19T18:32:50.040Z,17.08
2023-05-19T18:35:52.788Z,17.03
2023-05-19T18:38:58.478Z,16.92
2023-05-19T18:42:03.348Z,16.84
2023-05-19T18:45:06.581Z,16.79
2023-05-19T18:48:09.459Z,16.80
2023-05-19T18:51:14.329Z,16.77
2023-05-19T18:54:17.153Z,16.72
2023-05-19T18:57:19.645Z,16.60
2023-05-19T19:00:26.028Z,16.51
2023-05-19T19:03:28.790Z,16.45
2023-05-19T19:06:31.876Z,16.39
2023-05-19T19:09:34.460Z,16.36
2023-05-19T19:12:38.937Z,16.35
2023-05-19T19:15:41.416Z,16.35
2023-05-19T19:18:44.233Z,16.37
2023-05-19T19:21:47.107Z,16.33
2023-05-19T19:24:49.811Z,16.36
2023-05-19T19:27:52.151Z,16.40
2023-05-19T19:30:54.799Z,16.38
2023-05-19T19:34:00.299Z,16.39
2023-05-19T19:37:03.901Z,16.37
2023-05-19T19:40:08.734Z,16.37
2023-05-19T19:43:11.725Z,16.36
2023-05-19T19:46:14.543Z,16.26
2023-05-19T19:49:17.448Z,16.26
2023-05-19T19:52:20.160Z,16.25
2023-05-19T19:55:25.153Z,16.24
2023-05-19T19:58:29.763Z,16.20
2023-05-19T20:01:33.761Z,16.23
2023-05-19T20:04:36.579Z,16.24
2023-05-19T20:07:39.014Z,16.24
2023-05-19T20:10:41.649Z,16.24
2023-05-19T20:13:44.087Z,16.24
2023-05-19T20:16:47.209Z,16.25
2023-05-19T20:19:49.657Z,16.25
2023-05-19T20:22:54.298Z,16.27
2023-05-19T20:26:10.906Z,16.25
2023-05-19T20:29:16.900Z,16.21
2023-05-19T20:32:19.365Z,16.13
2023-05-19T20:35:22.710Z,16.10
2023-05-19T20:38:25.381Z,16.05
2023-05-19T20:41:28.208Z,15.97
2023-05-19T20:44:30.859Z,15.92
2023-05-19T20:47:33.809Z,15.84
2023-05-19T20:50:39.447Z,15.76
2023-05-19T20:53:42.252Z,15.65
2023-05-19T20:56:44.728Z,15.55
2023-05-19T20:59:47.438Z,15.44
2023-05-19T21:02:49.862Z,15.36
2023-05-19T21:05:59.290Z,15.30
2023-05-19T21:09:04.943Z,15.28
2023-05-19T21:12:07.758Z,15.26
2023-05-19T21:15:10.617Z,15.27
2023-05-19T21:18:13.499Z,15.29
2023-05-19T21:21:16.020Z,15.31
2023-05-19T21:24:18.821Z,15.33
2023-05-19T21:27:21.805Z,15.37
2023-05-19T21:30:25.341Z,15.40
2023-05-19T21:33:27.869Z,15.41
2023-05-19T21:36:30.685Z,15.40
2023-05-19T21:39:33.123Z,15.44
2023-05-19T21:42:35.913Z,15.51
2023-05-19T21:45:38.716Z,15.56
2023-05-19T21:48:41.444Z,15.57
2023-05-19T21:51:43.833Z,15.65
2023-05-19T21:54:48.727Z,15.66
2023-05-19T21:57:54.049Z,15.67
2023-05-19T22:00:56.822Z,15.67
2023-05-19T22:03:59.865Z,15.67
2023-05-19T22:07:02.608Z,15.67
2023-05-19T22:10:05.864Z,15.62
2023-05-19T22:13:08.667Z,15.57
2023-05-19T22:16:11.614Z,15.48
2023-05-19T22:19:14.687Z,15.37
2023-05-19T22:22:17.411Z,15.27
2023-05-19T22:25:19.874Z,15.15
2023-05-19T22:28:22.516Z,15.06
2023-05-19T22:31:28.940Z,14.97
2023-05-19T22:34:31.673Z,14.84
2023-05-19T22:37:34.609Z,14.73
2023-05-19T22:40:37.459Z,14.63
2023-05-19T22:43:39.915Z,14.53
2023-05-19T22:46:44.529Z,14.49
2023-05-19T22:49:47.310Z,14.38
2023-05-19T22:52:50.232Z,14.33
2023-05-19T22:55:53.093Z,14.27
2023-05-19T22:58:56.249Z,14.22
2023-05-19T23:01:58.692Z,14.12
2023-05-19T23:05:01.378Z,14.07
2023-05-19T23:08:03.879Z,13.99
2023-05-19T23:11:07.273Z,13.95
2023-05-19T23:14:09.662Z,13.88
2023-05-19T23:17:12.340Z,13.83
2023-05-19T23:20:14.871Z,13.75
2023-05-19T23:23:17.691Z,13.66
2023-05-19T23:26:20.155Z,13.64
2023-05-19T23:29:23.293Z,13.60
2023-05-19T23:32:25.995Z,13.53
2023-05-19T23:35:28.971Z,13.48
2023-05-19T23:38:31.384Z,13.41
2023-05-19T23:41:34.006Z,13.39
2023-05-19T23:44:36.434Z,13.34
2023-05-19T23:47:39.332Z,13.30
2023-05-19T23:50:41.779Z,13.25
2023-05-19T23:53:46.967Z,13.25
2023-05-19T23:56:49.379Z,13.24
2023-05-19T23:59:52.688Z,13.25
